sensor_id;sensor_type;location;lat;lon;timestamp;P1;durP1;ratioP1;P2;durP2;ratioP2
58139;SDS011;53185;47.378;18.922;2022-11-20T00:01:10;34.88;;;10.68;;
58139;SDS011;53185;47.378;18.922;2022-11-20T00:03:41;24.63;;;10.48;;
58139;SDS011;53185;47.378;18.922;2022-11-20T00:06:09;29.08;;;11.48;;
58139;SDS011;53185;47.378;18.922;2022-11-20T00:08:37;27.58;;;10.77;;
58139;SDS011;53185;47.378;18.922;2022-11-20T00:11:15;24.98;;;9.68;;
58139;SDS011;53185;47.378;18.922;2022-11-20T00:13:43;26.50;;;10.05;;
58139;SDS011;53185;47.378;18.922;2022-11-20T00:16:13;24.50;;;8.98;;
58139;SDS011;53185;47.378;18.922;2022-11-20T00:18:41;24.98;;;9.15;;
58139;SDS011;53185;47.378;18.922;2022-11-20T00:21:16;30.02;;;11.75;;
58139;SDS011;53185;47.378;18.922;2022-11-20T00:23:48;31.20;;;9.48;;
58139;SDS011;53185;47.378;18.922;2022-11-20T00:26:16;20.90;;;8.77;;
58139;SDS011;53185;47.378;18.922;2022-11-20T00:28:48;27.92;;;10.98;;
58139;SDS011;53185;47.378;18.922;2022-11-20T00:31:16;30.08;;;10.38;;
58139;SDS011;53185;47.378;18.922;2022-11-20T00:33:44;23.62;;;9.88;;
58139;SDS011;53185;47.378;18.922;2022-11-20T00:36:13;21.67;;;8.07;;
58139;SDS011;53185;47.378;18.922;2022-11-20T00:38:44;28.38;;;9.93;;
58139;SDS011;53185;47.378;18.922;2022-11-20T00:41:13;33.25;;;10.35;;
58139;SDS011;53185;47.378;18.922;2022-11-20T00:43:41;23.00;;;10.00;;
58139;SDS011;53185;47.378;18.922;2022-11-20T00:46:09;28.33;;;9.65;;
58139;SDS011;53185;47.378;18.922;2022-11-20T00:48:39;28.30;;;11.98;;
58139;SDS011;53185;47.378;18.922;2022-11-20T00:51:06;24.52;;;10.35;;
58139;SDS011;53185;47.378;18.922;2022-11-20T00:53:33;26.02;;;9.95;;
58139;SDS011;53185;47.378;18.922;2022-11-20T00:56:07;31.02;;;10.45;;
58139;SDS011;53185;47.378;18.922;2022-11-20T00:58:37;22.25;;;9.70;;
58139;SDS011;53185;47.378;18.922;2022-11-20T01:01:09;25.58;;;9.88;;
58139;SDS011;53185;47.378;18.922;2022-11-20T01:03:39;29.92;;;10.73;;
58139;SDS011;53185;47.378;18.922;2022-11-20T01:06:09;26.12;;;9.32;;
58139;SDS011;53185;47.378;18.922;2022-11-20T01:08:42;28.83;;;10.77;;
58139;SDS011;53185;47.378;18.922;2022-11-20T01:11:19;24.90;;;10.02;;
58139;SDS011;53185;47.378;18.922;2022-11-20T01:13:49;29.55;;;11.18;;
58139;SDS011;53185;47.378;18.922;2022-11-20T01:16:18;22.83;;;9.75;;
58139;SDS011;53185;47.378;18.922;2022-11-20T01:19:05;29.05;;;11.60;;
58139;SDS011;53185;47.378;18.922;2022-11-20T01:21:34;37.33;;;10.90;;
58139;SDS011;53185;47.378;18.922;2022-11-20T01:24:07;26.17;;;11.48;;
58139;SDS011;53185;47.378;18.922;2022-11-20T01:26:35;23.77;;;9.85;;
58139;SDS011;53185;47.378;18.922;2022-11-20T01:29:04;33.05;;;12.88;;
58139;SDS011;53185;47.378;18.922;2022-11-20T01:31:35;31.33;;;11.48;;
58139;SDS011;53185;47.378;18.922;2022-11-20T01:34:06;26.30;;;11.02;;
58139;SDS011;53185;47.378;18.922;2022-11-20T01:36:37;30.77;;;10.70;;
58139;SDS011;53185;47.378;18.922;2022-11-20T01:39:10;23.62;;;10.07;;
58139;SDS011;53185;47.378;18.922;2022-11-20T01:41:49;24.15;;;9.93;;
58139;SDS011;53185;47.378;18.922;2022-11-20T01:44:47;25.00;;;10.48;;
58139;SDS011;53185;47.378;18.922;2022-11-20T01:49:50;22.40;;;8.80;;
58139;SDS011;53185;47.378;18.922;2022-11-20T01:52:34;29.05;;;10.02;;
58139;SDS011;53185;47.378;18.922;2022-11-20T01:55:09;27.30;;;10.40;;
58139;SDS011;53185;47.378;18.922;2022-11-20T01:57:40;36.78;;;12.57;;
58139;SDS011;53185;47.378;18.922;2022-11-20T02:00:08;32.38;;;10.98;;
58139;SDS011;53185;47.378;18.922;2022-11-20T02:02:38;25.02;;;8.70;;
58139;SDS011;53185;47.378;18.922;2022-11-20T02:05:29;31.75;;;11.15;;
58139;SDS011;53185;47.378;18.922;2022-11-20T02:08:12;31.35;;;11.07;;
58139;SDS011;53185;47.378;18.922;2022-11-20T02:10:39;27.58;;;10.02;;
58139;SDS011;53185;47.378;18.922;2022-11-20T02:13:06;34.22;;;12.82;;
58139;SDS011;53185;47.378;18.922;2022-11-20T02:15:53;27.83;;;10.63;;
58139;SDS011;53185;47.378;18.922;2022-11-20T02:18:20;29.35;;;10.75;;
58139;SDS011;53185;47.378;18.922;2022-11-20T02:20:48;40.30;;;12.45;;
58139;SDS011;53185;47.378;18.922;2022-11-20T02:23:38;31.98;;;13.32;;
58139;SDS011;53185;47.378;18.922;2022-11-20T02:26:07;34.47;;;11.02;;
58139;SDS011;53185;47.378;18.922;2022-11-20T02:28:36;30.37;;;12.55;;
58139;SDS011;53185;47.378;18.922;2022-11-20T02:31:03;37.53;;;12.85;;
58139;SDS011;53185;47.378;18.922;2022-11-20T02:33:30;29.83;;;12.25;;
58139;SDS011;53185;47.378;18.922;2022-11-20T02:35:57;36.10;;;13.73;;
58139;SDS011;53185;47.378;18.922;2022-11-20T02:38:24;42.95;;;12.55;;
58139;SDS011;53185;47.378;18.922;2022-11-20T02:40:53;37.13;;;12.02;;
58139;SDS011;53185;47.378;18.922;2022-11-20T02:43:22;33.85;;;12.40;;
58139;SDS011;53185;47.378;18.922;2022-11-20T02:45:50;38.88;;;13.50;;
58139;SDS011;53185;47.378;18.922;2022-11-20T02:48:17;40.03;;;14.18;;
58139;SDS011;53185;47.378;18.922;2022-11-20T02:50:44;36.75;;;12.68;;
58139;SDS011;53185;47.378;18.922;2022-11-20T02:53:11;33.80;;;13.80;;
58139;SDS011;53185;47.378;18.922;2022-11-20T02:55:38;31.25;;;13.38;;
58139;SDS011;53185;47.378;18.922;2022-11-20T02:58:05;39.25;;;14.00;;
58139;SDS011;53185;47.378;18.922;2022-11-20T03:00:32;45.30;;;13.82;;
58139;SDS011;53185;47.378;18.922;2022-11-20T03:03:00;35.03;;;13.70;;
58139;SDS011;53185;47.378;18.922;2022-11-20T03:05:27;37.47;;;12.90;;
58139;SDS011;53185;47.378;18.922;2022-11-20T03:07:54;36.97;;;15.02;;
58139;SDS011;53185;47.378;18.922;2022-11-20T03:10:21;40.08;;;13.38;;
58139;SDS011;53185;47.378;18.922;2022-11-20T03:12:52;40.38;;;13.68;;
58139;SDS011;53185;47.378;18.922;2022-11-20T03:15:22;33.55;;;12.82;;
58139;SDS011;53185;47.378;18.922;2022-11-20T03:17:52;42.40;;;13.43;;
58139;SDS011;53185;47.378;18.922;2022-11-20T03:22:48;29.83;;;11.32;;
58139;SDS011;53185;47.378;18.922;2022-11-20T03:25:15;34.85;;;12.18;;
58139;SDS011;53185;47.378;18.922;2022-11-20T03:27:42;35.20;;;13.30;;
58139;SDS011;53185;47.378;18.922;2022-11-20T03:30:09;39.85;;;14.48;;
58139;SDS011;53185;47.378;18.922;2022-11-20T03:32:36;37.45;;;12.02;;
58139;SDS011;53185;47.378;18.922;2022-11-20T03:35:03;35.83;;;12.30;;
58139;SDS011;53185;47.378;18.922;2022-11-20T03:37:31;37.92;;;13.68;;
58139;SDS011;53185;47.378;18.922;2022-11-20T03:39:58;34.55;;;12.95;;
58139;SDS011;53185;47.378;18.922;2022-11-20T03:42:25;40.00;;;13.68;;
58139;SDS011;53185;47.378;18.922;2022-11-20T03:45:12;31.27;;;12.55;;
58139;SDS011;53185;47.378;18.922;2022-11-20T03:47:40;33.95;;;12.32;;
58139;SDS011;53185;47.378;18.922;2022-11-20T03:50:07;34.90;;;13.50;;
58139;SDS011;53185;47.378;18.922;2022-11-20T03:52:35;39.17;;;13.15;;
58139;SDS011;53185;47.378;18.922;2022-11-20T03:55:02;50.00;;;13.73;;
58139;SDS011;53185;47.378;18.922;2022-11-20T03:57:28;33.35;;;12.30;;
58139;SDS011;53185;47.378;18.922;2022-11-20T03:59:56;37.60;;;13.20;;
58139;SDS011;53185;47.378;18.922;2022-11-20T04:02:22;39.95;;;13.62;;
58139;SDS011;53185;47.378;18.922;2022-11-20T04:04:50;38.85;;;13.70;;
58139;SDS011;53185;47.378;18.922;2022-11-20T04:07:17;30.70;;;12.57;;
58139;SDS011;53185;47.378;18.922;2022-11-20T04:09:43;35.13;;;13.65;;
58139;SDS011;53185;47.378;18.922;2022-11-20T04:12:11;33.95;;;13.20;;
58139;SDS011;53185;47.378;18.922;2022-11-20T04:14:38;41.92;;;14.13;;
58139;SDS011;53185;47.378;18.922;2022-11-20T04:17:05;34.17;;;14.20;;
58139;SDS011;53185;47.378;18.922;2022-11-20T04:19:32;40.10;;;12.85;;
58139;SDS011;53185;47.378;18.922;2022-11-20T04:21:59;34.60;;;13.00;;
58139;SDS011;53185;47.378;18.922;2022-11-20T04:24:26;34.72;;;12.52;;
58139;SDS011;53185;47.378;18.922;2022-11-20T04:26:53;32.47;;;11.80;;
58139;SDS011;53185;47.378;18.922;2022-11-20T04:29:20;35.67;;;12.13;;
58139;SDS011;53185;47.378;18.922;2022-11-20T04:31:47;31.55;;;11.90;;
58139;SDS011;53185;47.378;18.922;2022-11-20T04:34:14;38.58;;;13.70;;
58139;SDS011;53185;47.378;18.922;2022-11-20T04:36:41;36.88;;;13.18;;
58139;SDS011;53185;47.378;18.922;2022-11-20T04:39:11;36.47;;;13.82;;
58139;SDS011;53185;47.378;18.922;2022-11-20T04:41:40;40.60;;;13.30;;
58139;SDS011;53185;47.378;18.922;2022-11-20T04:44:07;32.72;;;11.52;;
58139;SDS011;53185;47.378;18.922;2022-11-20T04:46:41;29.87;;;12.07;;
58139;SDS011;53185;47.378;18.922;2022-11-20T04:49:10;37.80;;;12.57;;
58139;SDS011;53185;47.378;18.922;2022-11-20T04:51:37;29.37;;;13.68;;
58139;SDS011;53185;47.378;18.922;2022-11-20T04:54:04;33.75;;;14.05;;
58139;SDS011;53185;47.378;18.922;2022-11-20T04:56:31;36.22;;;14.50;;
58139;SDS011;53185;47.378;18.922;2022-11-20T04:59:01;31.05;;;12.23;;
58139;SDS011;53185;47.378;18.922;2022-11-20T05:01:29;30.12;;;12.07;;
58139;SDS011;53185;47.378;18.922;2022-11-20T05:03:56;32.83;;;12.10;;
58139;SDS011;53185;47.378;18.922;2022-11-20T05:06:23;31.33;;;12.37;;
58139;SDS011;53185;47.378;18.922;2022-11-20T05:08:50;27.60;;;11.73;;
58139;SDS011;53185;47.378;18.922;2022-11-20T05:11:19;32.53;;;12.30;;
58139;SDS011;53185;47.378;18.922;2022-11-20T05:13:47;34.60;;;13.23;;
58139;SDS011;53185;47.378;18.922;2022-11-20T05:16:16;31.48;;;13.07;;
58139;SDS011;53185;47.378;18.922;2022-11-20T05:18:47;31.95;;;12.32;;
58139;SDS011;53185;47.378;18.922;2022-11-20T05:21:15;29.80;;;12.02;;
58139;SDS011;53185;47.378;18.922;2022-11-20T05:23:42;36.83;;;13.82;;
58139;SDS011;53185;47.378;18.922;2022-11-20T05:26:28;42.90;;;14.80;;
58139;SDS011;53185;47.378;18.922;2022-11-20T05:28:55;34.28;;;12.90;;
58139;SDS011;53185;47.378;18.922;2022-11-20T05:31:23;33.83;;;12.55;;
58139;SDS011;53185;47.378;18.922;2022-11-20T05:33:54;38.55;;;13.98;;
58139;SDS011;53185;47.378;18.922;2022-11-20T05:36:23;30.55;;;11.55;;
58139;SDS011;53185;47.378;18.922;2022-11-20T05:38:49;35.30;;;13.82;;
58139;SDS011;53185;47.378;18.922;2022-11-20T05:41:20;30.42;;;12.82;;
58139;SDS011;53185;47.378;18.922;2022-11-20T05:43:47;29.25;;;11.43;;
58139;SDS011;53185;47.378;18.922;2022-11-20T05:46:16;31.40;;;12.80;;
58139;SDS011;53185;47.378;18.922;2022-11-20T05:48:50;34.15;;;12.80;;
58139;SDS011;53185;47.378;18.922;2022-11-20T05:51:18;30.62;;;12.65;;
58139;SDS011;53185;47.378;18.922;2022-11-20T05:53:45;36.83;;;14.15;;
58139;SDS011;53185;47.378;18.922;2022-11-20T05:56:16;32.40;;;13.38;;
58139;SDS011;53185;47.378;18.922;2022-11-20T05:58:44;32.40;;;12.37;;
58139;SDS011;53185;47.378;18.922;2022-11-20T06:01:14;29.48;;;11.95;;
58139;SDS011;53185;47.378;18.922;2022-11-20T06:03:43;27.33;;;12.05;;
58139;SDS011;53185;47.378;18.922;2022-11-20T06:06:13;25.83;;;10.70;;
58139;SDS011;53185;47.378;18.922;2022-11-20T06:08:40;32.90;;;12.48;;
58139;SDS011;53185;47.378;18.922;2022-11-20T06:11:08;27.55;;;11.95;;
58139;SDS011;53185;47.378;18.922;2022-11-20T06:13:36;35.88;;;13.07;;
58139;SDS011;53185;47.378;18.922;2022-11-20T06:16:08;41.72;;;18.50;;
58139;SDS011;53185;47.378;18.922;2022-11-20T06:18:36;31.10;;;12.32;;
58139;SDS011;53185;47.378;18.922;2022-11-20T06:21:10;29.55;;;12.23;;
58139;SDS011;53185;47.378;18.922;2022-11-20T06:23:38;34.15;;;14.35;;
58139;SDS011;53185;47.378;18.922;2022-11-20T06:26:07;41.30;;;16.90;;
58139;SDS011;53185;47.378;18.922;2022-11-20T06:28:34;42.22;;;15.70;;
58139;SDS011;53185;47.378;18.922;2022-11-20T06:31:02;36.50;;;14.77;;
58139;SDS011;53185;47.378;18.922;2022-11-20T06:33:29;32.38;;;12.45;;
58139;SDS011;53185;47.378;18.922;2022-11-20T06:36:00;34.67;;;11.75;;
58139;SDS011;53185;47.378;18.922;2022-11-20T06:38:33;30.70;;;11.45;;
58139;SDS011;53185;47.378;18.922;2022-11-20T06:40:59;33.30;;;13.13;;
58139;SDS011;53185;47.378;18.922;2022-11-20T06:43:29;30.88;;;12.18;;
58139;SDS011;53185;47.378;18.922;2022-11-20T06:45:57;36.30;;;13.62;;
58139;SDS011;53185;47.378;18.922;2022-11-20T06:48:31;31.67;;;13.52;;
58139;SDS011;53185;47.378;18.922;2022-11-20T06:51:04;34.97;;;13.52;;
58139;SDS011;53185;47.378;18.922;2022-11-20T06:53:33;35.05;;;13.93;;
58139;SDS011;53185;47.378;18.922;2022-11-20T06:56:00;39.78;;;14.10;;
58139;SDS011;53185;47.378;18.922;2022-11-20T06:58:31;36.35;;;14.80;;
58139;SDS011;53185;47.378;18.922;2022-11-20T07:01:05;29.37;;;13.40;;
58139;SDS011;53185;47.378;18.922;2022-11-20T07:03:34;32.28;;;13.60;;
58139;SDS011;53185;47.378;18.922;2022-11-20T07:06:01;29.80;;;13.98;;
58139;SDS011;53185;47.378;18.922;2022-11-20T07:08:28;35.78;;;14.38;;
58139;SDS011;53185;47.378;18.922;2022-11-20T07:10:57;35.63;;;15.48;;
58139;SDS011;53185;47.378;18.922;2022-11-20T07:13:31;41.88;;;16.15;;
58139;SDS011;53185;47.378;18.922;2022-11-20T07:16:05;38.08;;;16.30;;
58139;SDS011;53185;47.378;18.922;2022-11-20T07:18:33;31.92;;;14.30;;
58139;SDS011;53185;47.378;18.922;2022-11-20T07:21:01;33.97;;;14.52;;
58139;SDS011;53185;47.378;18.922;2022-11-20T07:23:31;31.55;;;14.57;;
58139;SDS011;53185;47.378;18.922;2022-11-20T07:26:08;31.58;;;13.98;;
58139;SDS011;53185;47.378;18.922;2022-11-20T07:28:36;32.30;;;14.32;;
58139;SDS011;53185;47.378;18.922;2022-11-20T07:31:04;32.17;;;14.25;;
58139;SDS011;53185;47.378;18.922;2022-11-20T07:33:33;28.27;;;13.75;;
58139;SDS011;53185;47.378;18.922;2022-11-20T07:36:00;30.92;;;12.73;;
58139;SDS011;53185;47.378;18.922;2022-11-20T07:38:27;30.45;;;13.50;;
58139;SDS011;53185;47.378;18.922;2022-11-20T07:40:54;29.85;;;13.75;;
58139;SDS011;53185;47.378;18.922;2022-11-20T07:43:25;36.83;;;13.15;;
58139;SDS011;53185;47.378;18.922;2022-11-20T07:45:55;33.13;;;15.88;;
58139;SDS011;53185;47.378;18.922;2022-11-20T07:48:25;38.45;;;15.70;;
58139;SDS011;53185;47.378;18.922;2022-11-20T07:50:54;35.10;;;16.15;;
58139;SDS011;53185;47.378;18.922;2022-11-20T07:53:30;34.88;;;16.55;;
58139;SDS011;53185;47.378;18.922;2022-11-20T07:56:01;41.37;;;17.37;;
58139;SDS011;53185;47.378;18.922;2022-11-20T07:58:31;42.85;;;18.45;;
58139;SDS011;53185;47.378;18.922;2022-11-20T08:01:05;44.50;;;18.52;;
58139;SDS011;53185;47.378;18.922;2022-11-20T08:03:35;39.65;;;16.37;;
58139;SDS011;53185;47.378;18.922;2022-11-20T08:06:04;31.87;;;13.82;;
58139;SDS011;53185;47.378;18.922;2022-11-20T08:08:31;25.50;;;12.52;;
58139;SDS011;53185;47.378;18.922;2022-11-20T08:11:00;28.67;;;13.02;;
58139;SDS011;53185;47.378;18.922;2022-11-20T08:13:46;30.17;;;11.80;;
58139;SDS011;53185;47.378;18.922;2022-11-20T08:16:46;27.27;;;11.30;;
58139;SDS011;53185;47.378;18.922;2022-11-20T08:19:14;24.20;;;11.27;;
58139;SDS011;53185;47.378;18.922;2022-11-20T08:21:44;22.95;;;10.93;;
58139;SDS011;53185;47.378;18.922;2022-11-20T08:24:11;30.37;;;12.48;;
58139;SDS011;53185;47.378;18.922;2022-11-20T08:26:39;24.90;;;12.23;;
58139;SDS011;53185;47.378;18.922;2022-11-20T08:29:06;27.37;;;10.95;;
58139;SDS011;53185;47.378;18.922;2022-11-20T08:31:33;33.72;;;12.90;;
58139;SDS011;53185;47.378;18.922;2022-11-20T08:34:00;33.70;;;12.73;;
58139;SDS011;53185;47.378;18.922;2022-11-20T08:36:34;30.85;;;12.77;;
58139;SDS011;53185;47.378;18.922;2022-11-20T08:39:01;28.90;;;12.50;;
58139;SDS011;53185;47.378;18.922;2022-11-20T08:41:29;28.30;;;13.65;;
58139;SDS011;53185;47.378;18.922;2022-11-20T08:44:00;40.28;;;16.30;;
58139;SDS011;53185;47.378;18.922;2022-11-20T08:46:41;43.20;;;15.20;;
58139;SDS011;53185;47.378;18.922;2022-11-20T08:49:10;29.45;;;13.18;;
58139;SDS011;53185;47.378;18.922;2022-11-20T08:51:38;23.65;;;12.82;;
58139;SDS011;53185;47.378;18.922;2022-11-20T08:54:05;44.83;;;18.90;;
58139;SDS011;53185;47.378;18.922;2022-11-20T08:56:33;34.53;;;15.73;;
58139;SDS011;53185;47.378;18.922;2022-11-20T08:59:00;35.30;;;15.60;;
58139;SDS011;53185;47.378;18.922;2022-11-20T09:01:47;32.03;;;15.38;;
58139;SDS011;53185;47.378;18.922;2022-11-20T09:04:14;29.27;;;14.45;;
58139;SDS011;53185;47.378;18.922;2022-11-20T09:06:42;30.25;;;13.77;;
58139;SDS011;53185;47.378;18.922;2022-11-20T09:09:09;33.85;;;14.30;;
58139;SDS011;53185;47.378;18.922;2022-11-20T09:11:36;35.22;;;14.40;;
58139;SDS011;53185;47.378;18.922;2022-11-20T09:14:03;35.25;;;15.20;;
58139;SDS011;53185;47.378;18.922;2022-11-20T09:16:31;36.25;;;15.38;;
58139;SDS011;53185;47.378;18.922;2022-11-20T09:18:58;35.08;;;14.68;;
58139;SDS011;53185;47.378;18.922;2022-11-20T09:21:45;35.80;;;15.55;;
58139;SDS011;53185;47.378;18.922;2022-11-20T09:24:12;43.67;;;19.75;;
58139;SDS011;53185;47.378;18.922;2022-11-20T09:26:39;44.45;;;17.60;;
58139;SDS011;53185;47.378;18.922;2022-11-20T09:29:06;40.55;;;18.52;;
58139;SDS011;53185;47.378;18.922;2022-11-20T09:31:33;44.05;;;18.80;;
58139;SDS011;53185;47.378;18.922;2022-11-20T09:34:00;46.83;;;22.00;;
58139;SDS011;53185;47.378;18.922;2022-11-20T09:36:27;51.50;;;21.62;;
58139;SDS011;53185;47.378;18.922;2022-11-20T09:38:54;40.58;;;19.30;;
58139;SDS011;53185;47.378;18.922;2022-11-20T09:46:43;36.85;;;16.73;;
58139;SDS011;53185;47.378;18.922;2022-11-20T09:49:24;44.05;;;21.42;;
58139;SDS011;53185;47.378;18.922;2022-11-20T09:52:21;42.17;;;19.73;;
58139;SDS011;53185;47.378;18.922;2022-11-20T09:55:00;40.33;;;18.92;;
58139;SDS011;53185;47.378;18.922;2022-11-20T09:57:33;44.83;;;20.50;;
58139;SDS011;53185;47.378;18.922;2022-11-20T10:00:04;49.22;;;21.10;;
58139;SDS011;53185;47.378;18.922;2022-11-20T10:02:40;46.30;;;18.05;;
58139;SDS011;53185;47.378;18.922;2022-11-20T10:08:13;35.00;;;16.45;;
58139;SDS011;53185;47.378;18.922;2022-11-20T10:10:49;38.08;;;15.85;;
58139;SDS011;53185;47.378;18.922;2022-11-20T10:27:32;32.55;;;14.85;;
58139;SDS011;53185;47.378;18.922;2022-11-20T10:30:06;31.50;;;14.32;;
58139;SDS011;53185;47.378;18.922;2022-11-20T10:32:42;29.58;;;13.85;;
58139;SDS011;53185;47.378;18.922;2022-11-20T10:37:41;31.67;;;14.18;;
58139;SDS011;53185;47.378;18.922;2022-11-20T10:42:59;26.17;;;12.85;;
58139;SDS011;53185;47.378;18.922;2022-11-20T10:45:34;32.08;;;15.13;;
58139;SDS011;53185;47.378;18.922;2022-11-20T10:56:52;30.25;;;13.85;;
58139;SDS011;53185;47.378;18.922;2022-11-20T11:02:22;32.65;;;14.73;;
58139;SDS011;53185;47.378;18.922;2022-11-20T11:04:51;34.42;;;13.85;;
58139;SDS011;53185;47.378;18.922;2022-11-20T11:07:23;38.80;;;17.60;;
58139;SDS011;53185;47.378;18.922;2022-11-20T11:09:53;33.65;;;15.68;;
58139;SDS011;53185;47.378;18.922;2022-11-20T11:12:21;29.70;;;15.25;;
58139;SDS011;53185;47.378;18.922;2022-11-20T11:14:55;28.62;;;13.65;;
58139;SDS011;53185;47.378;18.922;2022-11-20T11:17:27;30.98;;;13.90;;
58139;SDS011;53185;47.378;18.922;2022-11-20T11:22:45;30.65;;;13.55;;
58139;SDS011;53185;47.378;18.922;2022-11-20T11:25:26;32.25;;;15.23;;
58139;SDS011;53185;47.378;18.922;2022-11-20T11:27:56;35.65;;;14.35;;
58139;SDS011;53185;47.378;18.922;2022-11-20T11:30:26;31.35;;;12.65;;
58139;SDS011;53185;47.378;18.922;2022-11-20T11:33:03;38.30;;;14.40;;
58139;SDS011;53185;47.378;18.922;2022-11-20T11:35:32;40.53;;;17.08;;
58139;SDS011;53185;47.378;18.922;2022-11-20T11:38:04;39.10;;;16.37;;
58139;SDS011;53185;47.378;18.922;2022-11-20T11:40:34;34.83;;;14.63;;
58139;SDS011;53185;47.378;18.922;2022-11-20T11:43:04;39.08;;;16.70;;
58139;SDS011;53185;47.378;18.922;2022-11-20T11:45:54;35.53;;;14.55;;
58139;SDS011;53185;47.378;18.922;2022-11-20T11:48:21;33.80;;;15.32;;
58139;SDS011;53185;47.378;18.922;2022-11-20T11:50:49;39.65;;;17.00;;
58139;SDS011;53185;47.378;18.922;2022-11-20T11:53:17;41.15;;;19.50;;
58139;SDS011;53185;47.378;18.922;2022-11-20T11:55:47;41.58;;;18.08;;
58139;SDS011;53185;47.378;18.922;2022-11-20T12:01:38;33.88;;;15.75;;
58139;SDS011;53185;47.378;18.922;2022-11-20T12:04:16;34.58;;;14.63;;
58139;SDS011;53185;47.378;18.922;2022-11-20T12:07:07;32.67;;;14.90;;
58139;SDS011;53185;47.378;18.922;2022-11-20T12:10:02;35.67;;;15.48;;
58139;SDS011;53185;47.378;18.922;2022-11-20T12:12:31;32.22;;;15.18;;
58139;SDS011;53185;47.378;18.922;2022-11-20T12:15:03;33.58;;;14.43;;
58139;SDS011;53185;47.378;18.922;2022-11-20T12:17:31;47.40;;;16.85;;
58139;SDS011;53185;47.378;18.922;2022-11-20T12:19:58;37.38;;;16.77;;
58139;SDS011;53185;47.378;18.922;2022-11-20T12:22:46;36.58;;;16.37;;
58139;SDS011;53185;47.378;18.922;2022-11-20T12:25:20;39.17;;;16.45;;
58139;SDS011;53185;47.378;18.922;2022-11-20T12:28:13;41.33;;;16.47;;
58139;SDS011;53185;47.378;18.922;2022-11-20T12:33:57;38.13;;;17.00;;
58139;SDS011;53185;47.378;18.922;2022-11-20T12:36:45;37.10;;;16.05;;
58139;SDS011;53185;47.378;18.922;2022-11-20T12:39:39;43.95;;;18.52;;
58139;SDS011;53185;47.378;18.922;2022-11-20T12:48:12;47.50;;;19.73;;
58139;SDS011;53185;47.378;18.922;2022-11-20T12:50:51;33.25;;;15.95;;
58139;SDS011;53185;47.378;18.922;2022-11-20T12:59:16;39.28;;;17.25;;
58139;SDS011;53185;47.378;18.922;2022-11-20T13:01:53;42.08;;;18.05;;
58139;SDS011;53185;47.378;18.922;2022-11-20T13:07:08;46.42;;;18.60;;
58139;SDS011;53185;47.378;18.922;2022-11-20T13:09:39;46.30;;;18.55;;
58139;SDS011;53185;47.378;18.922;2022-11-20T13:14:52;41.30;;;18.37;;
58139;SDS011;53185;47.378;18.922;2022-11-20T13:17:31;58.10;;;22.70;;
58139;SDS011;53185;47.378;18.922;2022-11-20T13:20:02;43.10;;;19.65;;
58139;SDS011;53185;47.378;18.922;2022-11-20T13:25:35;48.42;;;20.55;;
58139;SDS011;53185;47.378;18.922;2022-11-20T13:30:47;46.88;;;19.15;;
58139;SDS011;53185;47.378;18.922;2022-11-20T13:33:27;39.05;;;17.30;;
58139;SDS011;53185;47.378;18.922;2022-11-20T13:38:43;45.53;;;19.40;;
58139;SDS011;53185;47.378;18.922;2022-11-20T13:41:22;41.15;;;18.10;;
58139;SDS011;53185;47.378;18.922;2022-11-20T13:47:04;51.00;;;23.17;;
58139;SDS011;53185;47.378;18.922;2022-11-20T13:49:49;42.50;;;17.90;;
58139;SDS011;53185;47.378;18.922;2022-11-20T13:52:37;37.17;;;16.35;;
58139;SDS011;53185;47.378;18.922;2022-11-20T13:55:16;39.85;;;17.40;;
58139;SDS011;53185;47.378;18.922;2022-11-20T14:01:15;45.15;;;18.08;;
58139;SDS011;53185;47.378;18.922;2022-11-20T14:03:42;41.90;;;17.23;;
58139;SDS011;53185;47.378;18.922;2022-11-20T14:06:30;40.70;;;18.27;;
58139;SDS011;53185;47.378;18.922;2022-11-20T14:08:59;47.90;;;18.65;;
58139;SDS011;53185;47.378;18.922;2022-11-20T14:11:27;44.30;;;19.70;;
58139;SDS011;53185;47.378;18.922;2022-11-20T14:13:56;48.28;;;20.42;;
58139;SDS011;53185;47.378;18.922;2022-11-20T14:16:26;46.78;;;19.98;;
58139;SDS011;53185;47.378;18.922;2022-11-20T14:18:55;42.03;;;18.05;;
58139;SDS011;53185;47.378;18.922;2022-11-20T14:21:23;47.28;;;19.83;;
58139;SDS011;53185;47.378;18.922;2022-11-20T14:26:31;39.50;;;17.95;;
58139;SDS011;53185;47.378;18.922;2022-11-20T14:28:59;50.85;;;20.80;;
58139;SDS011;53185;47.378;18.922;2022-11-20T14:31:26;62.83;;;20.33;;
58139;SDS011;53185;47.378;18.922;2022-11-20T14:33:54;42.80;;;18.98;;
58139;SDS011;53185;47.378;18.922;2022-11-20T14:36:22;44.30;;;18.90;;
58139;SDS011;53185;47.378;18.922;2022-11-20T14:38:51;41.85;;;18.17;;
58139;SDS011;53185;47.378;18.922;2022-11-20T14:41:22;40.70;;;18.80;;
58139;SDS011;53185;47.378;18.922;2022-11-20T14:43:52;38.33;;;17.85;;
58139;SDS011;53185;47.378;18.922;2022-11-20T14:46:22;40.12;;;16.70;;
58139;SDS011;53185;47.378;18.922;2022-11-20T14:48:50;42.97;;;18.52;;
58139;SDS011;53185;47.378;18.922;2022-11-20T14:51:35;44.22;;;19.08;;
58139;SDS011;53185;47.378;18.922;2022-11-20T14:54:11;37.70;;;16.58;;
58139;SDS011;53185;47.378;18.922;2022-11-20T14:59:26;37.90;;;18.45;;
58139;SDS011;53185;47.378;18.922;2022-11-20T15:02:03;58.55;;;19.83;;
58139;SDS011;53185;47.378;18.922;2022-11-20T15:04:32;48.20;;;22.10;;
58139;SDS011;53185;47.378;18.922;2022-11-20T15:06:59;45.05;;;17.62;;
58139;SDS011;53185;47.378;18.922;2022-11-20T15:09:26;38.53;;;18.65;;
58139;SDS011;53185;47.378;18.922;2022-11-20T15:14:29;43.33;;;19.75;;
58139;SDS011;53185;47.378;18.922;2022-11-20T15:16:57;45.12;;;19.62;;
58139;SDS011;53185;47.378;18.922;2022-11-20T15:19:25;52.75;;;20.05;;
58139;SDS011;53185;47.378;18.922;2022-11-20T15:21:53;67.28;;;26.20;;
58139;SDS011;53185;47.378;18.922;2022-11-20T15:24:20;56.80;;;25.42;;
58139;SDS011;53185;47.378;18.922;2022-11-20T15:26:47;45.30;;;19.87;;
58139;SDS011;53185;47.378;18.922;2022-11-20T15:29:15;48.78;;;20.60;;
58139;SDS011;53185;47.378;18.922;2022-11-20T15:34:13;53.25;;;20.77;;
58139;SDS011;53185;47.378;18.922;2022-11-20T15:36:41;44.33;;;19.23;;
58139;SDS011;53185;47.378;18.922;2022-11-20T15:39:09;50.20;;;20.60;;
58139;SDS011;53185;47.378;18.922;2022-11-20T15:41:37;60.28;;;25.35;;
58139;SDS011;53185;47.378;18.922;2022-11-20T15:44:05;61.72;;;27.17;;
58139;SDS011;53185;47.378;18.922;2022-11-20T15:46:32;53.53;;;22.65;;
58139;SDS011;53185;47.378;18.922;2022-11-20T15:49:04;52.40;;;23.17;;
58139;SDS011;53185;47.378;18.922;2022-11-20T15:51:33;52.42;;;20.92;;
58139;SDS011;53185;47.378;18.922;2022-11-20T15:54:03;56.90;;;22.73;;
58139;SDS011;53185;47.378;18.922;2022-11-20T15:56:36;55.53;;;22.55;;
58139;SDS011;53185;47.378;18.922;2022-11-20T15:59:03;59.95;;;23.15;;
58139;SDS011;53185;47.378;18.922;2022-11-20T16:01:30;61.50;;;24.63;;
58139;SDS011;53185;47.378;18.922;2022-11-20T16:03:58;72.78;;;27.37;;
58139;SDS011;53185;47.378;18.922;2022-11-20T16:06:26;76.25;;;27.58;;